sensor_id;sensor_type;location;lat;lon;timestamp;temperature;humidity
17571;DHT22;8903;52.220;20.978;2023-04-01T00:02:12;9.80;99.90
17571;DHT22;8903;52.220;20.978;2023-04-01T00:04:39;9.80;99.90
17571;DHT22;8903;52.220;20.978;2023-04-01T00:07:08;9.80;99.90
17571;DHT22;8903;52.220;20.978;2023-04-01T00:09:35;9.80;99.90
17571;DHT22;8903;52.220;20.978;2023-04-01T00:12:02;9.80;99.90
17571;DHT22;8903;52.220;20.978;2023-04-01T00:14:30;9.80;99.90
17571;DHT22;8903;52.220;20.978;2023-04-01T00:16:57;9.80;99.90
17571;DHT22;8903;52.220;20.978;2023-04-01T00:19:24;9.90;99.90
17571;DHT22;8903;52.220;20.978;2023-04-01T00:21:51;9.90;99.90
17571;DHT22;8903;52.220;20.978;2023-04-01T00:24:19;9.90;99.90
17571;DHT22;8903;52.220;20.978;2023-04-01T00:26:46;9.80;99.90
17571;DHT22;8903;52.220;20.978;2023-04-01T00:29:13;9.80;99.90
17571;DHT22;8903;52.220;20.978;2023-04-01T00:31:40;9.80;99.90
17571;DHT22;8903;52.220;20.978;2023-04-01T00:34:07;9.80;99.90
17571;DHT22;8903;52.220;20.978;2023-04-01T00:36:34;9.70;99.90
17571;DHT22;8903;52.220;20.978;2023-04-01T00:39:01;9.70;99.90
17571;DHT22;8903;52.220;20.978;2023-04-01T00:41:30;9.70;99.90
17571;DHT22;8903;52.220;20.978;2023-04-01T00:44:16;9.70;99.90
17571;DHT22;8903;52.220;20.978;2023-04-01T00:46:43;9.70;99.90
17571;DHT22;8903;52.220;20.978;2023-04-01T00:49:11;9.60;99.90
17571;DHT22;8903;52.220;20.978;2023-04-01T00:51:39;9.60;99.90
17571;DHT22;8903;52.220;20.978;2023-04-01T00:54:09;9.60;99.90
17571;DHT22;8903;52.220;20.978;2023-04-01T00:56:41;9.60;99.90
17571;DHT22;8903;52.220;20.978;2023-04-01T00:59:11;9.60;99.90
17571;DHT22;8903;52.220;20.978;2023-04-01T01:01:40;9.60;99.90
17571;DHT22;8903;52.220;20.978;2023-04-01T01:04:19;9.60;99.90
17571;DHT22;8903;52.220;20.978;2023-04-01T01:06:51;9.60;99.90
17571;DHT22;8903;52.220;20.978;2023-04-01T01:09:30;9.60;99.90
17571;DHT22;8903;52.220;20.978;2023-04-01T01:12:05;9.70;99.90
17571;DHT22;8903;52.220;20.978;2023-04-01T01:14:44;9.60;99.90
17571;DHT22;8903;52.220;20.978;2023-04-01T01:17:17;9.70;99.90
17571;DHT22;8903;52.220;20.978;2023-04-01T01:19:57;9.60;99.90
17571;DHT22;8903;52.220;20.978;2023-04-01T01:22:39;9.70;99.90
17571;DHT22;8903;52.220;20.978;2023-04-01T01:25:18;9.70;99.90
17571;DHT22;8903;52.220;20.978;2023-04-01T01:27:56;9.70;99.90
17571;DHT22;8903;52.220;20.978;2023-04-01T01:30:37;9.70;99.90
17571;DHT22;8903;52.220;20.978;2023-04-01T01:33:17;9.70;99.90
17571;DHT22;8903;52.220;20.978;2023-04-01T01:35:50;9.70;99.90
17571;DHT22;8903;52.220;20.978;2023-04-01T01:38:22;9.70;99.90
17571;DHT22;8903;52.220;20.978;2023-04-01T01:40:56;9.70;99.90
17571;DHT22;8903;52.220;20.978;2023-04-01T01:43:26;9.70;99.90
17571;DHT22;8903;52.220;20.978;2023-04-01T01:45:59;9.70;99.90
17571;DHT22;8903;52.220;20.978;2023-04-01T01:48:29;9.70;99.90
17571;DHT22;8903;52.220;20.978;2023-04-01T01:50:59;9.70;99.90
17571;DHT22;8903;52.220;20.978;2023-04-01T01:53:27;9.70;99.90
17571;DHT22;8903;52.220;20.978;2023-04-01T01:55:54;9.70;99.90
17571;DHT22;8903;52.220;20.978;2023-04-01T01:58:23;9.70;99.90
17571;DHT22;8903;52.220;20.978;2023-04-01T02:00:54;9.70;99.90
17571;DHT22;8903;52.220;20.978;2023-04-01T02:03:24;9.70;99.90
17571;DHT22;8903;52.220;20.978;2023-04-01T02:05:55;9.70;99.90
17571;DHT22;8903;52.220;20.978;2023-04-01T02:08:27;9.70;99.90
17571;DHT22;8903;52.220;20.978;2023-04-01T02:10:59;9.70;99.90
17571;DHT22;8903;52.220;20.978;2023-04-01T02:13:35;9.70;99.90
17571;DHT22;8903;52.220;20.978;2023-04-01T02:16:09;9.70;99.90
17571;DHT22;8903;52.220;20.978;2023-04-01T02:18:38;9.70;99.90
17571;DHT22;8903;52.220;20.978;2023-04-01T02:21:07;9.70;99.90
17571;DHT22;8903;52.220;20.978;2023-04-01T02:23:37;9.70;99.90
17571;DHT22;8903;52.220;20.978;2023-04-01T02:26:07;9.70;99.90
17571;DHT22;8903;52.220;20.978;2023-04-01T02:28:37;9.70;99.90
17571;DHT22;8903;52.220;20.978;2023-04-01T02:31:05;9.70;99.90
17571;DHT22;8903;52.220;20.978;2023-04-01T02:33:33;9.60;99.90
17571;DHT22;8903;52.220;20.978;2023-04-01T02:36:01;9.60;99.90
17571;DHT22;8903;52.220;20.978;2023-04-01T02:38:28;9.60;99.90
17571;DHT22;8903;52.220;20.978;2023-04-01T02:40:59;9.60;99.90
17571;DHT22;8903;52.220;20.978;2023-04-01T02:43:27;9.60;99.90
17571;DHT22;8903;52.220;20.978;2023-04-01T02:45:55;9.60;99.90
17571;DHT22;8903;52.220;20.978;2023-04-01T02:48:22;9.60;99.90
17571;DHT22;8903;52.220;20.978;2023-04-01T02:50:50;9.50;99.90
17571;DHT22;8903;52.220;20.978;2023-04-01T02:53:17;9.50;99.90
17571;DHT22;8903;52.220;20.978;2023-04-01T02:55:44;9.50;99.90
17571;DHT22;8903;52.220;20.978;2023-04-01T02:58:12;9.50;99.90
17571;DHT22;8903;52.220;20.978;2023-04-01T03:00:39;9.50;99.90
17571;DHT22;8903;52.220;20.978;2023-04-01T03:03:06;9.50;99.90
17571;DHT22;8903;52.220;20.978;2023-04-01T03:05:33;9.40;99.90
17571;DHT22;8903;52.220;20.978;2023-04-01T03:08:00;9.40;99.90
17571;DHT22;8903;52.220;20.978;2023-04-01T03:10:28;9.40;99.90
17571;DHT22;8903;52.220;20.978;2023-04-01T03:12:55;9.40;99.90
17571;DHT22;8903;52.220;20.978;2023-04-01T03:15:23;9.40;99.90
17571;DHT22;8903;52.220;20.978;2023-04-01T03:17:50;9.40;99.90
17571;DHT22;8903;52.220;20.978;2023-04-01T03:20:18;9.40;99.90
17571;DHT22;8903;52.220;20.978;2023-04-01T03:22:45;9.50;99.90
17571;DHT22;8903;52.220;20.978;2023-04-01T03:25:12;9.50;99.90
17571;DHT22;8903;52.220;20.978;2023-04-01T03:27:39;9.50;99.90
17571;DHT22;8903;52.220;20.978;2023-04-01T03:30:08;9.50;99.90
17571;DHT22;8903;52.220;20.978;2023-04-01T03:32:45;9.50;99.90
17571;DHT22;8903;52.220;20.978;2023-04-01T03:35:12;9.50;99.90
17571;DHT22;8903;52.220;20.978;2023-04-01T03:37:40;9.50;99.90
17571;DHT22;8903;52.220;20.978;2023-04-01T03:40:08;9.50;99.90
17571;DHT22;8903;52.220;20.978;2023-04-01T03:42:35;9.50;99.90
17571;DHT22;8903;52.220;20.978;2023-04-01T03:45:03;9.40;99.90
17571;DHT22;8903;52.220;20.978;2023-04-01T03:47:30;9.40;99.90
17571;DHT22;8903;52.220;20.978;2023-04-01T03:49:59;9.40;99.90
17571;DHT22;8903;52.220;20.978;2023-04-01T03:52:26;9.40;99.90
17571;DHT22;8903;52.220;20.978;2023-04-01T03:54:53;9.40;99.90
17571;DHT22;8903;52.220;20.978;2023-04-01T03:57:20;9.40;99.90
17571;DHT22;8903;52.220;20.978;2023-04-01T03:59:48;9.40;99.90
17571;DHT22;8903;52.220;20.978;2023-04-01T04:02:15;9.40;99.90
17571;DHT22;8903;52.220;20.978;2023-04-01T04:04:42;9.40;99.90
17571;DHT22;8903;52.220;20.978;2023-04-01T04:07:11;9.40;99.90
17571;DHT22;8903;52.220;20.978;2023-04-01T04:10:00;9.40;99.90
17571;DHT22;8903;52.220;20.978;2023-04-01T04:12:27;9.40;99.90
17571;DHT22;8903;52.220;20.978;2023-04-01T04:14:54;9.50;99.90
17571;DHT22;8903;52.220;20.978;2023-04-01T04:17:23;9.50;99.90
17571;DHT22;8903;52.220;20.978;2023-04-01T04:19:50;9.50;99.90
17571;DHT22;8903;52.220;20.978;2023-04-01T04:22:18;9.40;99.90
17571;DHT22;8903;52.220;20.978;2023-04-01T04:24:45;9.40;99.90
17571;DHT22;8903;52.220;20.978;2023-04-01T04:27:12;9.40;99.90
17571;DHT22;8903;52.220;20.978;2023-04-01T04:30:07;9.40;99.90
17571;DHT22;8903;52.220;20.978;2023-04-01T04:32:35;9.40;99.90
17571;DHT22;8903;52.220;20.978;2023-04-01T04:35:04;9.40;99.90
17571;DHT22;8903;52.220;20.978;2023-04-01T04:37:33;9.40;99.90
17571;DHT22;8903;52.220;20.978;2023-04-01T04:40:00;9.40;99.90
17571;DHT22;8903;52.220;20.978;2023-04-01T04:42:29;9.40;99.90
17571;DHT22;8903;52.220;20.978;2023-04-01T04:45:02;9.40;99.90
17571;DHT22;8903;52.220;20.978;2023-04-01T04:47:30;9.40;99.90
17571;DHT22;8903;52.220;20.978;2023-04-01T04:49:57;9.40;99.90
17571;DHT22;8903;52.220;20.978;2023-04-01T04:52:24;9.40;99.90
17571;DHT22;8903;52.220;20.978;2023-04-01T04:54:53;9.40;99.90
17571;DHT22;8903;52.220;20.978;2023-04-01T04:57:20;9.40;99.90
17571;DHT22;8903;52.220;20.978;2023-04-01T04:59:53;9.40;99.90
17571;DHT22;8903;52.220;20.978;2023-04-01T05:02:36;9.40;99.90
17571;DHT22;8903;52.220;20.978;2023-04-01T05:05:04;9.40;99.90
17571;DHT22;8903;52.220;20.978;2023-04-01T05:07:31;9.30;99.90
17571;DHT22;8903;52.220;20.978;2023-04-01T05:10:00;9.30;99.90
17571;DHT22;8903;52.220;20.978;2023-04-01T05:12:27;9.30;99.90
17571;DHT22;8903;52.220;20.978;2023-04-01T05:14:57;9.30;99.90
17571;DHT22;8903;52.220;20.978;2023-04-01T05:17:25;9.30;99.90
17571;DHT22;8903;52.220;20.978;2023-04-01T05:19:53;9.30;99.90
17571;DHT22;8903;52.220;20.978;2023-04-01T05:22:20;9.30;99.90
17571;DHT22;8903;52.220;20.978;2023-04-01T05:24:47;9.30;99.90
17571;DHT22;8903;52.220;20.978;2023-04-01T05:27:16;9.30;99.90
17571;DHT22;8903;52.220;20.978;2023-04-01T05:29:43;9.30;99.90
17571;DHT22;8903;52.220;20.978;2023-04-01T05:32:28;9.30;99.90
17571;DHT22;8903;52.220;20.978;2023-04-01T05:34:58;9.40;99.90
17571;DHT22;8903;52.220;20.978;2023-04-01T05:37:25;9.40;99.90
17571;DHT22;8903;52.220;20.978;2023-04-01T05:39:53;9.40;99.90
17571;DHT22;8903;52.220;20.978;2023-04-01T05:42:21;9.40;99.90
17571;DHT22;8903;52.220;20.978;2023-04-01T05:44:48;9.40;99.90
17571;DHT22;8903;52.220;20.978;2023-04-01T05:47:34;9.40;99.90
17571;DHT22;8903;52.220;20.978;2023-04-01T05:50:01;9.50;99.90
17571;DHT22;8903;52.220;20.978;2023-04-01T05:52:28;9.40;99.90
17571;DHT22;8903;52.220;20.978;2023-04-01T05:54:55;9.50;99.90
17571;DHT22;8903;52.220;20.978;2023-04-01T05:57:24;9.50;99.90
17571;DHT22;8903;52.220;20.978;2023-04-01T05:59:51;9.60;99.90
17571;DHT22;8903;52.220;20.978;2023-04-01T06:02:18;9.70;99.90
17571;DHT22;8903;52.220;20.978;2023-04-01T06:04:45;9.80;99.90
17571;DHT22;8903;52.220;20.978;2023-04-01T06:07:13;9.90;99.90
17571;DHT22;8903;52.220;20.978;2023-04-01T06:09:40;9.90;99.90
17571;DHT22;8903;52.220;20.978;2023-04-01T06:12:38;10.00;99.90
17571;DHT22;8903;52.220;20.978;2023-04-01T06:15:20;10.00;99.90
17571;DHT22;8903;52.220;20.978;2023-04-01T06:18:03;9.90;99.90
17571;DHT22;8903;52.220;20.978;2023-04-01T06:20:41;10.00;99.90
17571;DHT22;8903;52.220;20.978;2023-04-01T06:23:15;9.90;99.90
17571;DHT22;8903;52.220;20.978;2023-04-01T06:25:53;9.90;99.90
17571;DHT22;8903;52.220;20.978;2023-04-01T06:28:41;10.00;99.90
17571;DHT22;8903;52.220;20.978;2023-04-01T06:31:24;10.00;99.90
17571;DHT22;8903;52.220;20.978;2023-04-01T06:34:08;9.90;99.90
17571;DHT22;8903;52.220;20.978;2023-04-01T06:37:04;10.00;99.90
17571;DHT22;8903;52.220;20.978;2023-04-01T06:39:46;10.00;99.90
17571;DHT22;8903;52.220;20.978;2023-04-01T06:42:28;10.00;99.90
17571;DHT22;8903;52.220;20.978;2023-04-01T06:45:15;10.00;99.90
17571;DHT22;8903;52.220;20.978;2023-04-01T06:48:17;10.10;99.90
17571;DHT22;8903;52.220;20.978;2023-04-01T06:51:13;10.10;99.90
17571;DHT22;8903;52.220;20.978;2023-04-01T06:54:10;10.10;99.90
17571;DHT22;8903;52.220;20.978;2023-04-01T06:57:12;10.20;99.90
17571;DHT22;8903;52.220;20.978;2023-04-01T06:59:41;10.20;99.90
17571;DHT22;8903;52.220;20.978;2023-04-01T07:02:19;10.30;99.90
17571;DHT22;8903;52.220;20.978;2023-04-01T07:04:50;10.30;99.90
17571;DHT22;8903;52.220;20.978;2023-04-01T07:07:24;10.40;99.90
17571;DHT22;8903;52.220;20.978;2023-04-01T07:10:00;10.40;99.90
17571;DHT22;8903;52.220;20.978;2023-04-01T07:12:37;10.40;99.90
17571;DHT22;8903;52.220;20.978;2023-04-01T07:15:30;10.40;99.90
17571;DHT22;8903;52.220;20.978;2023-04-01T07:18:02;10.40;99.90
17571;DHT22;8903;52.220;20.978;2023-04-01T07:20:35;10.40;99.90
17571;DHT22;8903;52.220;20.978;2023-04-01T07:23:06;10.30;99.90
17571;DHT22;8903;52.220;20.978;2023-04-01T07:25:47;10.30;99.90
17571;DHT22;8903;52.220;20.978;2023-04-01T07:28:51;10.20;99.90
17571;DHT22;8903;52.220;20.978;2023-04-01T07:34:50;10.10;99.90
17571;DHT22;8903;52.220;20.978;2023-04-01T07:37:26;10.10;99.90
17571;DHT22;8903;52.220;20.978;2023-04-01T07:40:04;10.10;99.90
17571;DHT22;8903;52.220;20.978;2023-04-01T07:42:46;10.10;99.90
17571;DHT22;8903;52.220;20.978;2023-04-01T07:45:21;10.20;99.90
17571;DHT22;8903;52.220;20.978;2023-04-01T07:48:13;10.20;99.90
17571;DHT22;8903;52.220;20.978;2023-04-01T07:50:49;10.10;99.90
17571;DHT22;8903;52.220;20.978;2023-04-01T07:53:23;10.10;99.90
17571;DHT22;8903;52.220;20.978;2023-04-01T07:56:01;10.20;99.90
17571;DHT22;8903;52.220;20.978;2023-04-01T07:58:38;10.30;99.90
17571;DHT22;8903;52.220;20.978;2023-04-01T08:01:16;10.50;99.90
17571;DHT22;8903;52.220;20.978;2023-04-01T08:04:03;10.60;99.90
17571;DHT22;8903;52.220;20.978;2023-04-01T08:06:39;10.70;99.90
17571;DHT22;8903;52.220;20.978;2023-04-01T08:09:20;10.80;99.90
17571;DHT22;8903;52.220;20.978;2023-04-01T08:12:17;10.80;99.90
17571;DHT22;8903;52.220;20.978;2023-04-01T08:15:21;10.80;99.90
17571;DHT22;8903;52.220;20.978;2023-04-01T08:18:07;10.90;99.90
17571;DHT22;8903;52.220;20.978;2023-04-01T08:20:44;10.80;99.90
17571;DHT22;8903;52.220;20.978;2023-04-01T08:23:16;11.00;99.90
17571;DHT22;8903;52.220;20.978;2023-04-01T08:25:48;11.00;99.90
17571;DHT22;8903;52.220;20.978;2023-04-01T08:28:23;11.10;99.90
17571;DHT22;8903;52.220;20.978;2023-04-01T08:30:55;11.00;99.90
17571;DHT22;8903;52.220;20.978;2023-04-01T08:33:25;11.10;99.90
17571;DHT22;8903;52.220;20.978;2023-04-01T08:36:06;11.10;99.90
17571;DHT22;8903;52.220;20.978;2023-04-01T08:38:39;11.20;99.90
17571;DHT22;8903;52.220;20.978;2023-04-01T08:47:39;11.10;99.90
17571;DHT22;8903;52.220;20.978;2023-04-01T08:53:27;11.00;99.90
17571;DHT22;8903;52.220;20.978;2023-04-01T08:56:10;11.00;99.90
17571;DHT22;8903;52.220;20.978;2023-04-01T08:59:07;11.00;99.90
17571;DHT22;8903;52.220;20.978;2023-04-01T09:01:51;11.00;99.90
17571;DHT22;8903;52.220;20.978;2023-04-01T09:05:06;11.00;99.90
17571;DHT22;8903;52.220;20.978;2023-04-01T09:07:49;10.80;99.90
17571;DHT22;8903;52.220;20.978;2023-04-01T09:13:55;10.90;99.90
17571;DHT22;8903;52.220;20.978;2023-04-01T09:16:45;10.90;99.90
17571;DHT22;8903;52.220;20.978;2023-04-01T09:19:28;10.90;99.90
17571;DHT22;8903;52.220;20.978;2023-04-01T09:22:25;10.90;99.90
17571;DHT22;8903;52.220;20.978;2023-04-01T09:25:15;10.80;99.90
17571;DHT22;8903;52.220;20.978;2023-04-01T09:27:56;10.80;99.90
17571;DHT22;8903;52.220;20.978;2023-04-01T09:30:44;10.80;99.90
17571;DHT22;8903;52.220;20.978;2023-04-01T09:36:47;10.70;99.90
17571;DHT22;8903;52.220;20.978;2023-04-01T09:39:32;10.50;99.90
17571;DHT22;8903;52.220;20.978;2023-04-01T09:42:14;10.40;99.90
17571;DHT22;8903;52.220;20.978;2023-04-01T09:44:59;10.40;99.90
17571;DHT22;8903;52.220;20.978;2023-04-01T09:47:51;10.40;99.90
17571;DHT22;8903;52.220;20.978;2023-04-01T09:50:38;10.50;99.90
17571;DHT22;8903;52.220;20.978;2023-04-01T09:53:28;10.60;99.90
17571;DHT22;8903;52.220;20.978;2023-04-01T09:56:23;10.70;99.90
17571;DHT22;8903;52.220;20.978;2023-04-01T10:05:40;11.00;99.90
17571;DHT22;8903;52.220;20.978;2023-04-01T10:14:40;11.00;99.90
17571;DHT22;8903;52.220;20.978;2023-04-01T10:20:57;10.80;99.90
17571;DHT22;8903;52.220;20.978;2023-04-01T10:23:48;10.70;99.90
17571;DHT22;8903;52.220;20.978;2023-04-01T10:26:38;10.80;99.90
17571;DHT22;8903;52.220;20.978;2023-04-01T10:39:55;11.10;99.90
17571;DHT22;8903;52.220;20.978;2023-04-01T10:46:40;11.10;99.90
17571;DHT22;8903;52.220;20.978;2023-04-01T10:49:41;10.90;99.90
17571;DHT22;8903;52.220;20.978;2023-04-01T11:02:47;11.30;99.90
17571;DHT22;8903;52.220;20.978;2023-04-01T11:05:58;11.40;99.90
17571;DHT22;8903;52.220;20.978;2023-04-01T11:09:07;11.50;99.90
17571;DHT22;8903;52.220;20.978;2023-04-01T11:14:57;11.50;99.90
17571;DHT22;8903;52.220;20.978;2023-04-01T11:17:54;11.50;99.90
17571;DHT22;8903;52.220;20.978;2023-04-01T11:20:51;11.70;99.90
17571;DHT22;8903;52.220;20.978;2023-04-01T11:23:50;11.90;99.90
17571;DHT22;8903;52.220;20.978;2023-04-01T11:26:32;12.10;99.90
17571;DHT22;8903;52.220;20.978;2023-04-01T11:29:45;12.20;99.90
17571;DHT22;8903;52.220;20.978;2023-04-01T11:32:42;12.30;99.90
17571;DHT22;8903;52.220;20.978;2023-04-01T11:35:28;12.40;99.90
17571;DHT22;8903;52.220;20.978;2023-04-01T11:38:10;12.50;99.90
17571;DHT22;8903;52.220;20.978;2023-04-01T11:40:49;12.40;99.90
17571;DHT22;8903;52.220;20.978;2023-04-01T11:43:39;12.20;99.90
17571;DHT22;8903;52.220;20.978;2023-04-01T11:46:44;12.20;99.90
17571;DHT22;8903;52.220;20.978;2023-04-01T11:49:29;12.20;99.90
17571;DHT22;8903;52.220;20.978;2023-04-01T11:52:40;12.00;99.90
17571;DHT22;8903;52.220;20.978;2023-04-01T11:55:23;11.70;99.90
17571;DHT22;8903;52.220;20.978;2023-04-01T11:58:02;11.60;99.90
17571;DHT22;8903;52.220;20.978;2023-04-01T12:03:57;10.90;99.90
17571;DHT22;8903;52.220;20.978;2023-04-01T12:06:35;10.80;99.90
17571;DHT22;8903;52.220;20.978;2023-04-01T12:09:12;10.70;99.90
17571;DHT22;8903;52.220;20.978;2023-04-01T12:11:48;10.70;99.90
17571;DHT22;8903;52.220;20.978;2023-04-01T12:14:20;10.70;99.90
17571;DHT22;8903;52.220;20.978;2023-04-01T12:16:57;10.70;99.90
17571;DHT22;8903;52.220;20.978;2023-04-01T12:19:35;10.70;99.90
17571;DHT22;8903;52.220;20.978;2023-04-01T12:22:23;10.80;99.90
17571;DHT22;8903;52.220;20.978;2023-04-01T12:24:58;10.80;99.90
17571;DHT22;8903;52.220;20.978;2023-04-01T12:27:35;10.70;99.90
17571;DHT22;8903;52.220;20.978;2023-04-01T12:30:41;10.70;99.90
17571;DHT22;8903;52.220;20.978;2023-04-01T12:33:27;10.90;99.90
17571;DHT22;8903;52.220;20.978;2023-04-01T12:36:10;11.10;99.90
17571;DHT22;8903;52.220;20.978;2023-04-01T12:38:48;11.60;99.90
17571;DHT22;8903;52.220;20.978;2023-04-01T12:41:26;12.00;99.90
17571;DHT22;8903;52.220;20.978;2023-04-01T12:44:17;12.10;99.90
17571;DHT22;8903;52.220;20.978;2023-04-01T12:47:00;12.40;99.90
17571;DHT22;8903;52.220;20.978;2023-04-01T12:50:01;12.70;99.90
17571;DHT22;8903;52.220;20.978;2023-04-01T12:52:44;13.00;99.90
17571;DHT22;8903;52.220;20.978;2023-04-01T12:55:43;13.10;99.90
17571;DHT22;8903;52.220;20.978;2023-04-01T12:58:39;13.00;99.90
17571;DHT22;8903;52.220;20.978;2023-04-01T13:01:43;12.80;99.90
17571;DHT22;8903;52.220;20.978;2023-04-01T13:04:48;12.40;99.90
17571;DHT22;8903;52.220;20.978;2023-04-01T13:07:39;12.30;99.90
17571;DHT22;8903;52.220;20.978;2023-04-01T13:10:16;12.10;99.90
17571;DHT22;8903;52.220;20.978;2023-04-01T13:13:05;12.00;99.90
17571;DHT22;8903;52.220;20.978;2023-04-01T13:15:38;11.90;99.90
17571;DHT22;8903;52.220;20.978;2023-04-01T13:18:17;11.80;99.90
17571;DHT22;8903;52.220;20.978;2023-04-01T13:20:56;11.80;99.90
17571;DHT22;8903;52.220;20.978;2023-04-01T13:23:39;11.80;99.90
17571;DHT22;8903;52.220;20.978;2023-04-01T13:26:18;11.60;99.90
17571;DHT22;8903;52.220;20.978;2023-04-01T13:28:50;11.10;99.90
17571;DHT22;8903;52.220;20.978;2023-04-01T13:31:30;11.00;99.90
17571;DHT22;8903;52.220;20.978;2023-04-01T13:34:09;10.90;99.90
17571;DHT22;8903;52.220;20.978;2023-04-01T13:36:47;10.60;99.90
17571;DHT22;8903;52.220;20.978;2023-04-01T13:39:37;10.60;99.90
17571;DHT22;8903;52.220;20.978;2023-04-01T13:42:14;10.40;99.90
17571;DHT22;8903;52.220;20.978;2023-04-01T13:44:46;10.10;99.90
17571;DHT22;8903;52.220;20.978;2023-04-01T13:47:30;10.10;99.90
17571;DHT22;8903;52.220;20.978;2023-04-01T13:50:32;10.00;99.90
17571;DHT22;8903;52.220;20.978;2023-04-01T13:53:21;10.00;99.90
17571;DHT22;8903;52.220;20.978;2023-04-01T13:56:08;10.10;99.90
17571;DHT22;8903;52.220;20.978;2023-04-01T14:01:32;10.30;99.90
17571;DHT22;8903;52.220;20.978;2023-04-01T14:04:24;10.30;99.90
17571;DHT22;8903;52.220;20.978;2023-04-01T14:07:14;10.30;99.90
17571;DHT22;8903;52.220;20.978;2023-04-01T14:09:57;10.40;99.90
17571;DHT22;8903;52.220;20.978;2023-04-01T14:12:31;10.60;99.90
17571;DHT22;8903;52.220;20.978;2023-04-01T14:15:21;10.50;99.90
17571;DHT22;8903;52.220;20.978;2023-04-01T14:18:07;10.60;99.90
17571;DHT22;8903;52.220;20.978;2023-04-01T14:20:41;10.70;99.90
17571;DHT22;8903;52.220;20.978;2023-04-01T14:29:36;10.50;99.90
17571;DHT22;8903;52.220;20.978;2023-04-01T14:32:10;10.50;99.90
17571;DHT22;8903;52.220;20.978;2023-04-01T14:34:55;10.50;99.90
17571;DHT22;8903;52.220;20.978;2023-04-01T14:37:40;10.60;99.90
17571;DHT22;8903;52.220;20.978;2023-04-01T14:40:26;10.60;99.90
17571;DHT22;8903;52.220;20.978;2023-04-01T14:43:27;10.60;99.90
17571;DHT22;8903;52.220;20.978;2023-04-01T14:48:58;10.60;99.90
17571;DHT22;8903;52.220;20.978;2023-04-01T14:51:31;10.50;99.90
17571;DHT22;8903;52.220;20.978;2023-04-01T14:54:04;10.50;99.90
17571;DHT22;8903;52.220;20.978;2023-04-01T14:56:40;10.40;99.90
17571;DHT22;8903;52.220;20.978;2023-04-01T14:59:10;10.40;99.90
17571;DHT22;8903;52.220;20.978;2023-04-01T15:01:46;10.30;99.90
17571;DHT22;8903;52.220;20.978;2023-04-01T15:04:41;10.30;99.90
17571;DHT22;8903;52.220;20.978;2023-04-01T15:07:25;10.30;99.90
17571;DHT22;8903;52.220;20.978;2023-04-01T15:10:03;10.30;99.90
17571;DHT22;8903;52.220;20.978;2023-04-01T15:12:39;10.30;99.90
17571;DHT22;8903;52.220;20.978;2023-04-01T15:15:20;10.10;99.90
17571;DHT22;8903;52.220;20.978;2023-04-01T15:18:08;10.00;99.90
17571;DHT22;8903;52.220;20.978;2023-04-01T15:21:13;9.90;99.90
17571;DHT22;8903;52.220;20.978;2023-04-01T15:23:53;9.90;99.90
17571;DHT22;8903;52.220;20.978;2023-04-01T15:26:42;9.90;99.90
17571;DHT22;8903;52.220;20.978;2023-04-01T15:29:33;9.90;99.90
17571;DHT22;8903;52.220;20.978;2023-04-01T15:32:14;9.80;99.90
17571;DHT22;8903;52.220;20.978;2023-04-01T15:34:52;9.90;99.90
17571;DHT22;8903;52.220;20.978;2023-04-01T15:37:32;9.90;99.90
17571;DHT22;8903;52.220;20.978;2023-04-01T15:40:14;9.90;99.90
17571;DHT22;8903;52.220;20.978;2023-04-01T15:42:52;9.90;99.90
17571;DHT22;8903;52.220;20.978;2023-04-01T15:45:32;9.90;99.90
17571;DHT22;8903;52.220;20.978;2023-04-01T15:48:11;10.00;99.90
17571;DHT22;8903;52.220;20.978;2023-04-01T15:50:54;10.00;99.90
17571;DHT22;8903;52.220;20.978;2023-04-01T15:53:37;9.90;99.90
17571;DHT22;8903;52.220;20.978;2023-04-01T15:56:25;9.90;99.90
17571;DHT22;8903;52.220;20.978;2023-04-01T15:59:01;9.90;99.90
17571;DHT22;8903;52.220;20.978;2023-04-01T16:01:38;9.90;99.90
17571;DHT22;8903;52.220;20.978;2023-04-01T16:04:32;9.90;99.90
17571;DHT22;8903;52.220;20.978;2023-04-01T16:07:15;9.90;99.90
17571;DHT22;8903;52.220;20.978;2023-04-01T16:09:58;9.90;99.90
17571;DHT22;8903;52.220;20.978;2023-04-01T16:12:36;9.90;99.90
17571;DHT22;8903;52.220;20.978;2023-04-01T16:15:14;9.90;99.90
17571;DHT22;8903;52.220;20.978;2023-04-01T16:17:56;9.90;99.90
17571;DHT22;8903;52.220;20.978;2023-04-01T16:20:39;9.90;99.90
17571;DHT22;8903;52.220;20.978;2023-04-01T16:23:17;9.90;99.90
17571;DHT22;8903;52.220;20.978;2023-04-01T16:25:51;9.90;99.90
17571;DHT22;8903;52.220;20.978;2023-04-01T16:28:25;9.80;99.90
17571;DHT22;8903;52.220;20.978;2023-04-01T16:31:25;9.80;99.90
17571;DHT22;8903;52.220;20.978;2023-04-01T16:34:04;9.70;99.90
17571;DHT22;8903;52.220;20.978;2023-04-01T16:36:37;9.70;99.90
17571;DHT22;8903;52.220;20.978;2023-04-01T16:39:27;9.70;99.90
17571;DHT22;8903;52.220;20.978;2023-04-01T16:42:11;9.60;99.90
17571;DHT22;8903;52.220;20.978;2023-04-01T16:47:47;9.60;99.90
17571;DHT22;8903;52.220;20.978;2023-04-01T16:50:19;9.60;99.90
17571;DHT22;8903;52.220;20.978;2023-04-01T16:52:56;9.60;99.90
17571;DHT22;8903;52.220;20.978;2023-04-01T16:55:35;9.60;99.90
17571;DHT22;8903;52.220;20.978;2023-04-01T16:58:03;9.50;99.90
17571;DHT22;8903;52.220;20.978;2023-04-01T17:00:37;9.50;99.90
17571;DHT22;8903;52.220;20.978;2023-04-01T17:03:12;9.50;99.90
17571;DHT22;8903;52.220;20.978;2023-04-01T17:05:55;9.50;99.90
17571;DHT22;8903;52.220;20.978;2023-04-01T17:08:34;9.40;99.90
17571;DHT22;8903;52.220;20.978;2023-04-01T17:11:09;9.40;99.90
17571;DHT22;8903;52.220;20.978;2023-04-01T17:13:46;9.50;99.90
17571;DHT22;8903;52.220;20.978;2023-04-01T17:23:28;9.40;99.90
17571;DHT22;8903;52.220;20.978;2023-04-01T17:26:31;9.50;99.90
17571;DHT22;8903;52.220;20.978;2023-04-01T17:29:06;9.50;99.90
17571;DHT22;8903;52.220;20.978;2023-04-01T17:31:46;9.40;99.90
17571;DHT22;8903;52.220;20.978;2023-04-01T17:37:45;9.50;99.90
17571;DHT22;8903;52.220;20.978;2023-04-01T17:40:37;9.50;99.90
17571;DHT22;8903;52.220;20.978;2023-04-01T17:43:41;9.50;99.90
17571;DHT22;8903;52.220;20.978;2023-04-01T17:46:29;9.40;99.90
17571;DHT22;8903;52.220;20.978;2023-04-01T17:49:05;9.40;99.90
17571;DHT22;8903;52.220;20.978;2023-04-01T17:51:41;9.30;99.90
17571;DHT22;8903;52.220;20.978;2023-04-01T17:54:21;9.30;99.90
17571;DHT22;8903;52.220;20.978;2023-04-01T17:57:02;9.30;99.90
17571;DHT22;8903;52.220;20.978;2023-04-01T17:59:36;9.30;99.90
17571;DHT22;8903;52.220;20.978;2023-04-01T18:02:15;9.20;99.90
17571;DHT22;8903;52.220;20.978;2023-04-01T18:05:13;9.10;99.90
17571;DHT22;8903;52.220;20.978;2023-04-01T18:10:57;9.10;99.90
17571;DHT22;8903;52.220;20.978;2023-04-01T18:13:40;9.20;99.90
17571;DHT22;8903;52.220;20.978;2023-04-01T18:19:14;9.10;99.90
17571;DHT22;8903;52.220;20.978;2023-04-01T18:21:47;9.00;99.90
17571;DHT22;8903;52.220;20.978;2023-04-01T18:24:20;8.90;99.90
17571;DHT22;8903;52.220;20.978;2023-04-01T18:26:59;8.90;99.90
17571;DHT22;8903;52.220;20.978;2023-04-01T18:29:41;8.80;99.90